QTR416 OTHH-OKKK
Flight info
| Callsign | QTR416 |
|---|---|
| Flight time | 0h 56m |
| Altitude | 30000 |
| Route | TULUB B457 BHR A453 DEBTI |
| Aircraft | B77L/H-SDE1E2E3FGHIJ2J3J4J5M1RWXY/LB1D1 |
Departure
| Time | 2026-05-08 06:54 |
|---|---|
| Airport | Hamad International Airport (OTHH) |
Arrival
| Time | 2026-05-08 07:50 |
|---|---|
| Airport | Kuwait International Airport (OKKK) |
| Time | Latitude | Longitude | Altitude | Speed | Heading |
|---|---|---|---|---|---|
| 2026-05-08 06:25 | 25.28054 | 51.61041 | 34 ft | 0 kts | 248° |
| 2026-05-08 06:37 | 25.28060 | 51.61059 | 33 ft | 4 kts | 248° |
| 2026-05-08 06:38 | 25.28070 | 51.61086 | 34 ft | 4 kts | 248° |
| 2026-05-08 06:38 | 25.28079 | 51.61110 | 32 ft | 3 kts | 248° |
| 2026-05-08 06:38 | 25.28092 | 51.61131 | 31 ft | 4 kts | 198° |
| 2026-05-08 06:38 | 25.28115 | 51.61129 | 31 ft | 3 kts | 158° |
| 2026-05-08 06:39 | 25.28139 | 51.61118 | 32 ft | 4 kts | 158° |
| 2026-05-08 06:39 | 25.28165 | 51.61107 | 31 ft | 4 kts | 158° |
| 2026-05-08 06:39 | 25.28190 | 51.61096 | 33 ft | 4 kts | 158° |
| 2026-05-08 06:39 | 25.28206 | 51.61089 | 32 ft | 0 kts | 158° |
| 2026-05-08 06:46 | 25.28185 | 51.61100 | 33 ft | 7 kts | 149° |
| 2026-05-08 06:46 | 25.28165 | 51.61144 | 33 ft | 7 kts | 93° |
| 2026-05-08 06:46 | 25.28176 | 51.61196 | 33 ft | 7 kts | 69° |
| 2026-05-08 06:46 | 25.28197 | 51.61252 | 34 ft | 8 kts | 68° |
| 2026-05-08 06:47 | 25.28197 | 51.61310 | 33 ft | 8 kts | 131° |
| 2026-05-08 06:47 | 25.28138 | 51.61333 | 33 ft | 9 kts | 162° |
| 2026-05-08 06:47 | 25.28074 | 51.61358 | 33 ft | 10 kts | 160° |
| 2026-05-08 06:47 | 25.28005 | 51.61386 | 33 ft | 11 kts | 160° |
| 2026-05-08 06:48 | 25.27932 | 51.61422 | 32 ft | 12 kts | 156° |
| 2026-05-08 06:48 | 25.27853 | 51.61458 | 32 ft | 13 kts | 159° |
| 2026-05-08 06:48 | 25.27772 | 51.61493 | 33 ft | 13 kts | 159° |
| 2026-05-08 06:48 | 25.27691 | 51.61529 | 33 ft | 13 kts | 158° |
| 2026-05-08 06:49 | 25.27609 | 51.61564 | 33 ft | 13 kts | 159° |
| 2026-05-08 06:49 | 25.27526 | 51.61598 | 33 ft | 13 kts | 159° |
| 2026-05-08 06:49 | 25.27444 | 51.61633 | 33 ft | 13 kts | 159° |
| 2026-05-08 06:49 | 25.27362 | 51.61672 | 33 ft | 13 kts | 156° |
| 2026-05-08 06:50 | 25.27276 | 51.61712 | 33 ft | 16 kts | 158° |
| 2026-05-08 06:50 | 25.27164 | 51.61760 | 33 ft | 18 kts | 159° |
| 2026-05-08 06:50 | 25.27051 | 51.61809 | 33 ft | 18 kts | 159° |
| 2026-05-08 06:50 | 25.26938 | 51.61858 | 32 ft | 18 kts | 159° |
| 2026-05-08 06:51 | 25.26824 | 51.61907 | 33 ft | 18 kts | 159° |
| 2026-05-08 06:51 | 25.26710 | 51.61956 | 33 ft | 18 kts | 159° |
| 2026-05-08 06:51 | 25.26597 | 51.62008 | 33 ft | 18 kts | 157° |
| 2026-05-08 06:51 | 25.26484 | 51.62059 | 33 ft | 18 kts | 158° |
| 2026-05-08 06:52 | 25.26370 | 51.62109 | 34 ft | 18 kts | 158° |
| 2026-05-08 06:52 | 25.26256 | 51.62159 | 34 ft | 18 kts | 158° |
| 2026-05-08 06:52 | 25.26144 | 51.62208 | 34 ft | 18 kts | 158° |
| 2026-05-08 06:52 | 25.26035 | 51.62258 | 34 ft | 15 kts | 152° |
| 2026-05-08 06:53 | 25.26008 | 51.62358 | 33 ft | 15 kts | 72° |
| 2026-05-08 06:53 | 25.26085 | 51.62433 | 31 ft | 18 kts | 358° |
| 2026-05-08 06:53 | 25.26303 | 51.62346 | 32 ft | 59 kts | 338° |
| 2026-05-08 06:53 | 25.26936 | 51.62068 | 28 ft | 133 kts | 339° |
| 2026-05-08 06:54 | 25.27938 | 51.61611 | 248 ft | 168 kts | 337° |
| 2026-05-08 06:54 | 25.29044 | 51.61113 | 857 ft | 173 kts | 340° |
| 2026-05-08 06:54 | 25.30116 | 51.60638 | 1824 ft | 169 kts | 343° |
| 2026-05-08 06:54 | 25.30942 | 51.60281 | 2091 ft | 191 kts | 342° |
| 2026-05-08 06:55 | 25.31506 | 51.60037 | 2188 ft | 206 kts | 342° |
| 2026-05-08 06:55 | 25.32936 | 51.59423 | 2552 ft | 230 kts | 345° |
| 2026-05-08 06:55 | 25.34543 | 51.59301 | 3150 ft | 239 kts | 10° |
| 2026-05-08 06:55 | 25.36190 | 51.59780 | 3880 ft | 248 kts | 15° |
| 2026-05-08 06:56 | 25.37721 | 51.60268 | 4582 ft | 251 kts | 15° |
| 2026-05-08 06:56 | 25.37755 | 51.60279 | 4597 ft | 251 kts | 15° |
| 2026-05-08 06:56 | 25.39438 | 51.60814 | 5393 ft | 252 kts | 14° |
| 2026-05-08 06:56 | 25.41163 | 51.61362 | 5981 ft | 264 kts | 15° |
| 2026-05-08 06:57 | 25.42414 | 51.61758 | 6355 ft | 273 kts | 15° |
| 2026-05-08 06:57 | 25.42872 | 51.61903 | 6525 ft | 274 kts | 15° |
| 2026-05-08 06:57 | 25.44727 | 51.62490 | 7254 ft | 278 kts | 15° |
| 2026-05-08 06:57 | 25.46571 | 51.63073 | 8014 ft | 281 kts | 15° |
| 2026-05-08 06:58 | 25.48477 | 51.63607 | 8762 ft | 286 kts | 12° |
| 2026-05-08 06:58 | 25.50420 | 51.64062 | 9563 ft | 284 kts | 12° |
| 2026-05-08 06:58 | 25.52369 | 51.64517 | 10061 ft | 287 kts | 12° |
| 2026-05-08 06:58 | 25.54367 | 51.64992 | 10639 ft | 301 kts | 13° |
| 2026-05-08 06:59 | 25.56415 | 51.65485 | 11414 ft | 308 kts | 13° |
| 2026-05-08 06:59 | 25.58542 | 51.65832 | 12192 ft | 314 kts | 358° |
| 2026-05-08 06:59 | 25.60716 | 51.65405 | 12852 ft | 324 kts | 346° |
| 2026-05-08 06:59 | 25.62915 | 51.64809 | 13759 ft | 328 kts | 347° |
| 2026-05-08 07:00 | 25.64662 | 51.64357 | 14351 ft | 335 kts | 347° |
| 2026-05-08 07:00 | 25.64961 | 51.64281 | 14455 ft | 336 kts | 347° |
| 2026-05-08 07:00 | 25.67212 | 51.63722 | 15406 ft | 337 kts | 347° |
| 2026-05-08 07:01 | 25.69525 | 51.63159 | 16286 ft | 340 kts | 347° |
| 2026-05-08 07:01 | 25.71841 | 51.62600 | 17248 ft | 343 kts | 347° |
| 2026-05-08 07:01 | 25.74165 | 51.61875 | 17961 ft | 351 kts | 337° |
| 2026-05-08 07:01 | 25.76430 | 51.60790 | 18667 ft | 357 kts | 333° |
| 2026-05-08 07:02 | 25.78695 | 51.59641 | 19501 ft | 358 kts | 334° |
| 2026-05-08 07:02 | 25.80980 | 51.58527 | 20357 ft | 360 kts | 334° |
| 2026-05-08 07:02 | 25.83281 | 51.57400 | 21126 ft | 359 kts | 328° |
| 2026-05-08 07:02 | 25.85238 | 51.55693 | 21734 ft | 359 kts | 306° |
| 2026-05-08 07:03 | 25.86556 | 51.53369 | 22484 ft | 355 kts | 294° |
| 2026-05-08 07:03 | 25.87702 | 51.50963 | 23292 ft | 357 kts | 294° |
| 2026-05-08 07:03 | 25.88858 | 51.48510 | 24031 ft | 360 kts | 293° |
| 2026-05-08 07:03 | 25.90026 | 51.46042 | 24756 ft | 362 kts | 293° |
| 2026-05-08 07:04 | 25.91210 | 51.43559 | 25450 ft | 364 kts | 293° |
| 2026-05-08 07:04 | 25.92408 | 51.41065 | 26148 ft | 367 kts | 293° |
| 2026-05-08 07:04 | 25.93604 | 51.38581 | 26739 ft | 371 kts | 292° |
| 2026-05-08 07:04 | 25.94826 | 51.36052 | 26881 ft | 373 kts | 292° |
| 2026-05-08 07:05 | 25.96058 | 51.33503 | 26882 ft | 374 kts | 292° |
| 2026-05-08 07:05 | 25.97288 | 51.30958 | 26876 ft | 372 kts | 292° |
| 2026-05-08 07:05 | 25.98491 | 51.28423 | 26863 ft | 370 kts | 292° |
| 2026-05-08 07:05 | 25.99674 | 51.25889 | 26879 ft | 369 kts | 292° |
| 2026-05-08 07:06 | 26.00851 | 51.23355 | 26875 ft | 368 kts | 292° |
| 2026-05-08 07:06 | 26.02028 | 51.20823 | 26875 ft | 368 kts | 292° |
| 2026-05-08 07:06 | 26.03189 | 51.18326 | 26892 ft | 368 kts | 291° |
| 2026-05-08 07:06 | 26.04366 | 51.15798 | 26874 ft | 368 kts | 291° |
| 2026-05-08 07:07 | 26.05546 | 51.13262 | 26874 ft | 368 kts | 291° |
| 2026-05-08 07:07 | 26.06724 | 51.10731 | 26874 ft | 368 kts | 291° |
| 2026-05-08 07:07 | 26.07903 | 51.08196 | 26872 ft | 369 kts | 291° |
| 2026-05-08 07:07 | 26.09082 | 51.05662 | 26874 ft | 369 kts | 291° |
| 2026-05-08 07:08 | 26.10262 | 51.03123 | 26875 ft | 369 kts | 291° |
| 2026-05-08 07:08 | 26.11439 | 51.00581 | 26896 ft | 373 kts | 290° |
| 2026-05-08 07:08 | 26.12570 | 50.97917 | 27022 ft | 390 kts | 289° |
| 2026-05-08 07:08 | 26.13701 | 50.95136 | 27152 ft | 409 kts | 289° |
| 2026-05-08 07:09 | 26.14904 | 50.92197 | 27268 ft | 427 kts | 289° |
| 2026-05-08 07:09 | 26.16165 | 50.89131 | 27442 ft | 442 kts | 289° |
| 2026-05-08 07:09 | 26.17454 | 50.85977 | 27835 ft | 451 kts | 289° |
| 2026-05-08 07:09 | 26.18758 | 50.82784 | 28377 ft | 455 kts | 289° |
| 2026-05-08 07:10 | 26.20069 | 50.79573 | 29008 ft | 457 kts | 289° |
| 2026-05-08 07:10 | 26.21388 | 50.76343 | 29704 ft | 457 kts | 288° |
| 2026-05-08 07:10 | 26.22699 | 50.73130 | 30486 ft | 453 kts | 288° |
| 2026-05-08 07:10 | 26.24029 | 50.69968 | 31226 ft | 450 kts | 292° |
| 2026-05-08 07:11 | 26.25868 | 50.67132 | 31731 ft | 467 kts | 307° |
| 2026-05-08 07:11 | 26.28405 | 50.64741 | 32353 ft | 478 kts | 319° |
| 2026-05-08 07:11 | 26.31392 | 50.63010 | 32967 ft | 492 kts | 333° |
| 2026-05-08 07:11 | 26.34612 | 50.61844 | 33589 ft | 493 kts | 335° |
| 2026-05-08 07:12 | 26.37889 | 50.60661 | 33916 ft | 497 kts | 334° |
| 2026-05-08 07:12 | 26.41164 | 50.59386 | 33874 ft | 498 kts | 333° |
| 2026-05-08 07:12 | 26.47705 | 50.56943 | 33874 ft | 493 kts | 335° |
| 2026-05-08 07:13 | 26.54214 | 50.54576 | 33896 ft | 490 kts | 334° |
| 2026-05-08 07:13 | 26.60679 | 50.52141 | 33896 ft | 490 kts | 333° |
| 2026-05-08 07:14 | 26.67066 | 50.49604 | 33899 ft | 485 kts | 328° |
| 2026-05-08 07:14 | 26.72767 | 50.45816 | 33903 ft | 471 kts | 315° |
| 2026-05-08 07:15 | 26.77542 | 50.40945 | 33916 ft | 463 kts | 307° |
| 2026-05-08 07:15 | 26.82183 | 50.35966 | 33915 ft | 466 kts | 308° |
| 2026-05-08 07:16 | 26.86907 | 50.30977 | 33911 ft | 467 kts | 308° |
| 2026-05-08 07:16 | 26.91629 | 50.25982 | 33925 ft | 467 kts | 308° |
| 2026-05-08 07:17 | 26.96319 | 50.21008 | 33913 ft | 466 kts | 308° |
| 2026-05-08 07:17 | 27.01029 | 50.16006 | 33913 ft | 465 kts | 307° |
| 2026-05-08 07:18 | 27.05619 | 50.10985 | 33928 ft | 458 kts | 303° |
| 2026-05-08 07:18 | 27.09743 | 50.05588 | 33927 ft | 454 kts | 301° |
| 2026-05-08 07:19 | 27.13822 | 50.00161 | 33917 ft | 454 kts | 301° |
| 2026-05-08 07:19 | 27.17885 | 49.94789 | 33916 ft | 453 kts | 301° |
| 2026-05-08 07:20 | 27.21975 | 49.89399 | 33920 ft | 453 kts | 301° |
| 2026-05-08 07:20 | 27.25884 | 49.84246 | 33912 ft | 453 kts | 301° |
| 2026-05-08 07:21 | 27.26212 | 49.83814 | 33912 ft | 453 kts | 301° |
| 2026-05-08 07:21 | 27.30302 | 49.78414 | 33913 ft | 454 kts | 301° |
| 2026-05-08 07:22 | 27.34371 | 49.73035 | 33920 ft | 454 kts | 301° |
| 2026-05-08 07:22 | 27.38470 | 49.67609 | 33912 ft | 455 kts | 301° |
| 2026-05-08 07:23 | 27.42573 | 49.62170 | 33927 ft | 456 kts | 301° |
| 2026-05-08 07:23 | 27.46680 | 49.56730 | 33914 ft | 457 kts | 302° |
| 2026-05-08 07:24 | 27.51266 | 49.51843 | 33892 ft | 447 kts | 311° |
| 2026-05-08 07:24 | 27.56069 | 49.47610 | 33903 ft | 435 kts | 311° |
| 2026-05-08 07:25 | 27.60782 | 49.43409 | 33926 ft | 434 kts | 311° |
| 2026-05-08 07:25 | 27.65479 | 49.39189 | 33391 ft | 429 kts | 311° |
| 2026-05-08 07:26 | 27.67812 | 49.37089 | 32940 ft | 426 kts | 311° |
| 2026-05-08 07:26 | 27.70121 | 49.35008 | 32499 ft | 423 kts | 311° |
| 2026-05-08 07:26 | 27.72410 | 49.32944 | 32064 ft | 419 kts | 311° |
| 2026-05-08 07:26 | 27.74647 | 49.30925 | 31688 ft | 416 kts | 311° |
| 2026-05-08 07:27 | 27.76903 | 49.28888 | 31279 ft | 412 kts | 311° |
| 2026-05-08 07:27 | 27.79143 | 49.26865 | 30882 ft | 409 kts | 311° |
| 2026-05-08 07:27 | 27.81357 | 49.24862 | 30505 ft | 406 kts | 312° |
| 2026-05-08 07:27 | 27.83553 | 49.22877 | 30124 ft | 403 kts | 312° |
| 2026-05-08 07:28 | 27.85739 | 49.20900 | 29684 ft | 400 kts | 312° |
| 2026-05-08 07:28 | 27.87935 | 49.19020 | 29215 ft | 402 kts | 317° |
| 2026-05-08 07:28 | 27.90342 | 49.17344 | 28607 ft | 408 kts | 321° |
| 2026-05-08 07:28 | 27.92818 | 49.15733 | 27969 ft | 411 kts | 322° |
| 2026-05-08 07:29 | 27.95319 | 49.14126 | 27327 ft | 414 kts | 323° |
| 2026-05-08 07:29 | 27.97837 | 49.12506 | 26703 ft | 416 kts | 323° |
| 2026-05-08 07:29 | 28.00354 | 49.10877 | 26164 ft | 416 kts | 323° |
| 2026-05-08 07:29 | 28.02856 | 49.09250 | 25654 ft | 416 kts | 323° |
| 2026-05-08 07:30 | 28.05332 | 49.07632 | 25095 ft | 417 kts | 323° |
| 2026-05-08 07:30 | 28.07847 | 49.05983 | 24532 ft | 418 kts | 324° |
| 2026-05-08 07:30 | 28.10371 | 49.04327 | 24029 ft | 418 kts | 324° |
| 2026-05-08 07:30 | 28.12889 | 49.02674 | 23543 ft | 418 kts | 324° |
| 2026-05-08 07:31 | 28.15395 | 49.01028 | 23079 ft | 414 kts | 324° |
| 2026-05-08 07:31 | 28.17877 | 48.99398 | 22677 ft | 410 kts | 324° |
| 2026-05-08 07:31 | 28.20331 | 48.97784 | 22277 ft | 405 kts | 324° |
| 2026-05-08 07:31 | 28.22729 | 48.96206 | 21863 ft | 401 kts | 324° |
| 2026-05-08 07:32 | 28.25137 | 48.94620 | 21423 ft | 398 kts | 324° |
| 2026-05-08 07:32 | 28.27538 | 48.93036 | 20833 ft | 400 kts | 324° |
| 2026-05-08 07:32 | 28.29948 | 48.91445 | 20284 ft | 400 kts | 325° |
| 2026-05-08 07:32 | 28.32354 | 48.89849 | 19726 ft | 400 kts | 325° |
| 2026-05-08 07:33 | 28.34758 | 48.88252 | 19204 ft | 399 kts | 325° |
| 2026-05-08 07:33 | 28.37140 | 48.86669 | 18765 ft | 395 kts | 325° |
| 2026-05-08 07:33 | 28.39502 | 48.85099 | 18378 ft | 390 kts | 326° |
| 2026-05-08 07:33 | 28.41834 | 48.83548 | 17957 ft | 386 kts | 326° |
| 2026-05-08 07:34 | 28.44115 | 48.82030 | 17437 ft | 384 kts | 326° |
| 2026-05-08 07:34 | 28.46415 | 48.80496 | 16917 ft | 382 kts | 326° |
| 2026-05-08 07:34 | 28.48700 | 48.78973 | 16449 ft | 379 kts | 326° |
| 2026-05-08 07:34 | 28.50969 | 48.77460 | 15964 ft | 377 kts | 326° |
| 2026-05-08 07:35 | 28.53234 | 48.75950 | 15476 ft | 376 kts | 326° |
| 2026-05-08 07:35 | 28.55490 | 48.74444 | 14975 ft | 373 kts | 326° |
| 2026-05-08 07:35 | 28.57563 | 48.72777 | 14380 ft | 369 kts | 315° |
| 2026-05-08 07:35 | 28.59289 | 48.70629 | 13840 ft | 366 kts | 303° |
| 2026-05-08 07:36 | 28.60730 | 48.68278 | 13276 ft | 362 kts | 302° |
| 2026-05-08 07:36 | 28.62220 | 48.65977 | 12880 ft | 358 kts | 304° |
| 2026-05-08 07:36 | 28.63701 | 48.63754 | 12709 ft | 347 kts | 304° |
| 2026-05-08 07:36 | 28.65149 | 48.61588 | 12389 ft | 340 kts | 304° |
| 2026-05-08 07:37 | 28.66575 | 48.59448 | 12034 ft | 335 kts | 304° |
| 2026-05-08 07:37 | 28.67957 | 48.57372 | 11962 ft | 322 kts | 304° |
| 2026-05-08 07:37 | 28.69270 | 48.55394 | 11771 ft | 312 kts | 304° |
| 2026-05-08 07:37 | 28.70564 | 48.53441 | 11511 ft | 305 kts | 304° |
| 2026-05-08 07:38 | 28.71827 | 48.51535 | 11257 ft | 297 kts | 304° |
| 2026-05-08 07:38 | 28.73059 | 48.49675 | 11014 ft | 290 kts | 304° |
| 2026-05-08 07:38 | 28.74252 | 48.47845 | 10718 ft | 285 kts | 303° |
| 2026-05-08 07:38 | 28.75401 | 48.46027 | 10389 ft | 281 kts | 302° |
| 2026-05-08 07:39 | 28.76535 | 48.44220 | 10067 ft | 278 kts | 302° |
| 2026-05-08 07:39 | 28.77653 | 48.42436 | 9740 ft | 275 kts | 302° |
| 2026-05-08 07:39 | 28.78745 | 48.40696 | 9388 ft | 272 kts | 302° |
| 2026-05-08 07:39 | 28.79841 | 48.38949 | 9037 ft | 269 kts | 302° |
| 2026-05-08 07:40 | 28.80929 | 48.37217 | 8689 ft | 267 kts | 302° |
| 2026-05-08 07:40 | 28.82003 | 48.35506 | 8341 ft | 264 kts | 302° |
| 2026-05-08 07:40 | 28.83066 | 48.33813 | 8000 ft | 261 kts | 302° |
| 2026-05-08 07:40 | 28.84117 | 48.32140 | 7660 ft | 258 kts | 302° |
| 2026-05-08 07:41 | 28.85155 | 48.30485 | 7326 ft | 255 kts | 303° |
| 2026-05-08 07:41 | 28.86184 | 48.28845 | 6997 ft | 252 kts | 303° |
| 2026-05-08 07:41 | 28.87187 | 48.27246 | 6707 ft | 248 kts | 303° |
| 2026-05-08 07:41 | 28.88184 | 48.25654 | 6431 ft | 245 kts | 303° |
| 2026-05-08 07:42 | 28.89165 | 48.24091 | 6179 ft | 240 kts | 303° |
| 2026-05-08 07:42 | 28.90127 | 48.22555 | 5939 ft | 236 kts | 303° |
| 2026-05-08 07:42 | 28.90753 | 48.21555 | 5756 ft | 232 kts | 304° |
| 2026-05-08 07:42 | 28.91686 | 48.20063 | 5491 ft | 229 kts | 304° |
| 2026-05-08 07:43 | 28.92608 | 48.18588 | 5246 ft | 228 kts | 304° |
| 2026-05-08 07:43 | 28.93527 | 48.17119 | 5066 ft | 225 kts | 305° |
| 2026-05-08 07:43 | 28.94429 | 48.15683 | 4891 ft | 222 kts | 305° |
| 2026-05-08 07:43 | 28.95319 | 48.14260 | 4736 ft | 219 kts | 306° |
| 2026-05-08 07:44 | 28.96199 | 48.12853 | 4549 ft | 218 kts | 307° |
| 2026-05-08 07:44 | 28.97102 | 48.11464 | 4387 ft | 214 kts | 314° |
| 2026-05-08 07:44 | 28.98231 | 48.10402 | 4165 ft | 207 kts | 324° |
| 2026-05-08 07:44 | 28.99357 | 48.09429 | 4011 ft | 200 kts | 324° |
| 2026-05-08 07:45 | 29.00437 | 48.08468 | 3829 ft | 191 kts | 324° |
| 2026-05-08 07:45 | 29.01454 | 48.07561 | 3788 ft | 192 kts | 323° |
| 2026-05-08 07:45 | 29.02527 | 48.06599 | 3655 ft | 197 kts | 324° |
| 2026-05-08 07:45 | 29.03585 | 48.05644 | 3429 ft | 189 kts | 325° |
| 2026-05-08 07:46 | 29.04591 | 48.04737 | 3261 ft | 180 kts | 324° |
| 2026-05-08 07:46 | 29.05573 | 48.03852 | 3090 ft | 182 kts | 325° |
| 2026-05-08 07:46 | 29.06601 | 48.02958 | 2932 ft | 188 kts | 330° |
| 2026-05-08 07:46 | 29.07724 | 48.02238 | 2710 ft | 179 kts | 336° |
| 2026-05-08 07:47 | 29.08824 | 48.01636 | 2387 ft | 170 kts | 338° |
| 2026-05-08 07:47 | 29.09842 | 48.01091 | 2204 ft | 160 kts | 338° |
| 2026-05-08 07:47 | 29.10879 | 48.00546 | 1950 ft | 162 kts | 336° |
| 2026-05-08 07:47 | 29.11867 | 48.00008 | 1717 ft | 151 kts | 337° |
| 2026-05-08 07:48 | 29.12796 | 47.99500 | 1527 ft | 148 kts | 340° |
| 2026-05-08 07:48 | 29.13731 | 47.99039 | 1187 ft | 142 kts | 337° |
| 2026-05-08 07:48 | 29.14621 | 47.98531 | 1126 ft | 145 kts | 338° |
| 2026-05-08 07:48 | 29.15555 | 47.98041 | 951 ft | 149 kts | 338° |
| 2026-05-08 07:49 | 29.16503 | 47.97533 | 809 ft | 152 kts | 337° |
| 2026-05-08 07:49 | 29.17482 | 47.97020 | 615 ft | 159 kts | 339° |
| 2026-05-08 07:49 | 29.18512 | 47.96479 | 373 ft | 166 kts | 338° |
| 2026-05-08 07:49 | 29.19545 | 47.95938 | 223 ft | 157 kts | 339° |
| 2026-05-08 07:50 | 29.20382 | 47.95496 | 220 ft | 99 kts | 335° |
| 2026-05-08 07:50 | 29.20842 | 47.95253 | 216 ft | 66 kts | 334° |
| 2026-05-08 07:50 | 29.21235 | 47.95043 | 221 ft | 57 kts | 336° |
| 2026-05-08 07:50 | 29.21513 | 47.94897 | 227 ft | 25 kts | 336° |
| 2026-05-08 07:51 | 29.21635 | 47.94836 | 226 ft | 12 kts | 336° |
| 2026-05-08 07:51 | 29.21663 | 47.94821 | 226 ft | 0 kts | 334° |
| 2026-05-08 07:51 | 29.21664 | 47.94820 | 226 ft | 0 kts | 335° |
| 2026-05-08 07:51 | 29.21673 | 47.94820 | 227 ft | 5 kts | 359° |
| 2026-05-08 07:52 | 29.21719 | 47.94806 | 226 ft | 9 kts | 340° |
| 2026-05-08 07:52 | 29.21783 | 47.94779 | 225 ft | 11 kts | 340° |
| 2026-05-08 07:52 | 29.21866 | 47.94740 | 222 ft | 13 kts | 336° |
| 2026-05-08 07:52 | 29.21884 | 47.94730 | 222 ft | 0 kts | 313° |
| 2026-05-08 07:53 | 29.21861 | 47.94758 | 225 ft | 3 kts | 337° |
| 2026-05-08 07:53 | 29.21968 | 47.94726 | 220 ft | 33 kts | 344° |
| 2026-05-08 07:53 | 29.22204 | 47.94641 | 217 ft | 23 kts | 346° |
| 2026-05-08 07:53 | 29.22338 | 47.94633 | 210 ft | 16 kts | 7° |
| 2026-05-08 07:54 | 29.22478 | 47.94668 | 173 ft | 24 kts | 14° |
| 2026-05-08 07:54 | 29.22627 | 47.94668 | 168 ft | 21 kts | 337° |
| 2026-05-08 07:54 | 29.22762 | 47.94599 | 169 ft | 22 kts | 337° |
| 2026-05-08 07:54 | 29.22890 | 47.94534 | 168 ft | 7 kts | 340° |
| 2026-05-08 07:55 | 29.22959 | 47.94527 | 167 ft | 18 kts | 359° |
| 2026-05-08 07:55 | 29.23049 | 47.94628 | 165 ft | 21 kts | 80° |
| 2026-05-08 07:55 | 29.22979 | 47.94756 | 165 ft | 23 kts | 172° |
| 2026-05-08 07:55 | 29.22920 | 47.94701 | 165 ft | 2 kts | 248° |
| 2026-05-08 07:56 | 29.22904 | 47.94664 | 166 ft | 0 kts | 244° |